Time;durP1;ratioP1;P1;durP2;ratioP2;P2;SDS_P1;SDS_P2;PMS_P1;PMS_P2;Temp;Humidity;BMP_temperature;BMP_pressure;BME280_temperature;BME280_humidity;BME280_pressure;Samples;Min_cycle;Max_cycle;Signal;HPM_P1;HPM_P2
2023/05/15 00:01:17;;;;;;;15.33;12.60;;;14.50;83.20;;;;;;5072578;28;20851;-44
2023/05/15 00:03:44;;;;;;;15.53;13.20;;;14.70;83.50;;;;;;5054361;28;20451;-43
2023/05/15 00:06:11;;;;;;;13.73;12.23;;;13.90;83.20;;;;;;5072728;28;20437;-42
2023/05/15 00:08:39;;;;;;;14.27;12.70;;;14.60;84.30;;;;;;5071914;28;20931;-40
2023/05/15 00:11:06;;;;;;;14.63;12.70;;;14.70;84.70;;;;;;5072312;28;20514;-43
2023/05/15 00:13:32;;;;;;;14.00;12.03;;;14.20;84.30;;;;;;5072207;28;20447;-42
2023/05/15 00:15:59;;;;;;;17.40;13.03;;;14.60;84.80;;;;;;5054131;28;20449;-42
2023/05/15 00:18:26;;;;;;;16.40;13.97;;;14.50;85.20;;;;;;5053703;28;20522;-43
2023/05/15 00:20:52;;;;;;;17.40;14.07;;;14.00;85.10;;;;;;5072010;28;20436;-43
2023/05/15 00:23:19;;;;;;;16.47;13.70;;;14.20;85.70;;;;;;5072089;28;20461;-43
2023/05/15 00:25:47;;;;;;;21.03;14.10;;;13.70;84.90;;;;;;5072174;28;20490;-42
2023/05/15 00:28:14;;;;;;;14.47;12.67;;;14.40;85.80;;;;;;5071887;28;20464;-44
2023/05/15 00:30:41;;;;;;;14.83;13.30;;;14.50;86.40;;;;;;5054216;28;20445;-43
2023/05/15 00:33:07;;;;;;;15.67;14.03;;;14.20;86.10;;;;;;5071938;28;20450;-43
2023/05/15 00:35:34;;;;;;;15.60;11.93;;;14.00;85.90;;;;;;5072048;28;20523;-44
2023/05/15 00:38:01;;;;;;;14.53;13.03;;;14.40;86.80;;;;;;5071987;28;20461;-42
2023/05/15 00:40:28;;;;;;;15.30;12.73;;;14.40;86.80;;;;;;5052980;28;20441;-43
2023/05/15 00:42:57;;;;;;;14.77;13.37;;;14.60;87.40;;;;;;5054441;28;20808;-43
2023/05/15 00:45:26;;;;;;;20.47;16.03;;;14.50;87.40;;;;;;5072337;28;20809;-41
2023/05/15 00:47:54;;;;;;;17.47;15.47;;;14.00;87.50;;;;;;5053961;28;20488;-42
2023/05/15 00:50:22;;;;;;;17.07;15.40;;;14.30;87.90;;;;;;5071664;28;20424;-43
2023/05/15 00:52:48;;;;;;;21.50;16.90;;;14.10;87.70;;;;;;5072169;28;20937;-43
2023/05/15 00:55:15;;;;;;;26.63;17.40;;;14.20;88.10;;;;;;5072401;28;20430;-43
2023/05/15 00:57:43;;;;;;;22.50;18.50;;;14.30;88.50;;;;;;5054165;28;20486;-44
2023/05/15 01:00:15;;;;;;;19.40;17.17;;;13.70;88.10;;;;;;5053543;28;20467;-43
2023/05/15 01:02:42;;;;;;;20.63;18.13;;;14.10;88.90;;;;;;5053505;28;20971;-42
2023/05/15 01:05:09;;;;;;;18.57;16.67;;;14.10;89.00;;;;;;5071857;28;20451;-44
2023/05/15 01:07:43;;;;;;;21.73;17.17;;;13.70;88.80;;;;;;5071579;28;20483;-44
2023/05/15 01:10:10;;;;;;;20.37;17.40;;;13.60;89.00;;;;;;5053324;28;20430;-43
2023/05/15 01:12:40;;;;;;;22.00;18.00;;;13.70;89.40;;;;;;5053527;28;20427;-44
2023/05/15 01:15:08;;;;;;;18.87;16.90;;;13.30;89.50;;;;;;5071633;28;20426;-43
2023/05/15 01:17:37;;;;;;;19.97;18.03;;;13.60;89.80;;;;;;5053401;28;20473;-43
2023/05/15 01:20:08;;;;;;;19.23;17.23;;;14.10;90.20;;;;;;5071071;28;20451;-44
2023/05/15 01:22:52;;;;;;;20.03;17.93;;;13.50;90.10;;;;;;5053495;28;20459;-41
2023/05/15 01:25:46;;;;;;;20.30;17.53;;;13.40;90.10;;;;;;5071509;28;20430;-42
2023/05/15 01:28:18;;;;;;;23.17;20.87;;;13.60;90.50;;;;;;5052927;28;20970;-44
2023/05/15 01:30:49;;;;;;;23.13;19.27;;;13.80;90.70;;;;;;5053562;28;20879;-42
2023/05/15 01:33:20;;;;;;;22.23;18.80;;;13.60;90.70;;;;;;5071322;28;20830;-43
2023/05/15 01:35:55;;;;;;;20.70;17.77;;;13.40;90.70;;;;;;5053543;28;20471;-43
2023/05/15 01:38:30;;;;;;;20.80;18.60;;;13.00;90.60;;;;;;5053130;28;20984;-43
2023/05/15 01:41:05;;;;;;;20.73;18.60;;;13.00;90.70;;;;;;5071439;28;20447;-43
2023/05/15 01:43:38;;;;;;;21.83;19.50;;;13.70;91.30;;;;;;5071590;28;20817;-42
2023/05/15 01:46:06;;;;;;;20.07;18.17;;;13.80;91.40;;;;;;5053255;28;20438;-42
2023/05/15 01:48:35;;;;;;;22.10;18.90;;;13.00;91.00;;;;;;5052955;28;20474;-43
2023/05/15 01:51:04;;;;;;;21.30;19.10;;;13.70;91.60;;;;;;5073144;28;20546;-45
2023/05/15 01:53:32;;;;;;;24.00;19.60;;;13.80;91.80;;;;;;5075141;28;20470;-43
2023/05/15 01:55:59;;;;;;;22.37;18.37;;;13.30;91.70;;;;;;5075121;28;20437;-42
2023/05/15 01:58:27;;;;;;;20.37;18.10;;;13.70;92.10;;;;;;5056851;28;20485;-42
2023/05/15 02:00:56;;;;;;;20.13;18.00;;;13.00;91.90;;;;;;5058151;28;20811;-43
2023/05/15 02:03:24;;;;;;;19.03;17.10;;;13.50;92.60;;;;;;5058091;28;20793;-42
2023/05/15 02:05:52;;;;;;;21.03;18.60;;;13.40;92.50;;;;;;5058175;28;20455;-44
2023/05/15 02:08:20;;;;;;;20.17;17.90;;;13.30;92.70;;;;;;5075760;28;20977;-43
2023/05/15 02:10:48;;;;;;;20.33;17.20;;;13.20;92.70;;;;;;5058200;28;20450;-43
2023/05/15 02:13:16;;;;;;;20.80;18.60;;;13.40;93.30;;;;;;5075625;28;20510;-46
2023/05/15 02:15:42;;;;;;;22.93;18.53;;;13.10;92.90;;;;;;5057588;28;20452;-44
2023/05/15 02:18:11;;;;;;;20.30;17.53;;;12.90;93.00;;;;;;5075239;28;20466;-44
2023/05/15 02:20:37;;;;;;;19.87;17.97;;;13.30;93.40;;;;;;5056853;28;20445;-44
2023/05/15 02:23:04;;;;;;;21.23;18.47;;;13.20;93.60;;;;;;5056430;28;20442;-43
2023/05/15 02:25:38;;;;;;;21.97;19.63;;;13.00;93.60;;;;;;5074636;28;20467;-43
2023/05/15 02:28:11;;;;;;;22.40;17.63;;;13.10;93.90;;;;;;5074370;28;20522;-44
2023/05/15 02:30:43;;;;;;;21.47;17.17;;;12.80;94.10;;;;;;5056528;28;20448;-43
2023/05/15 02:33:20;;;;;;;21.20;18.67;;;12.40;93.80;;;;;;5074200;28;20431;-44
2023/05/15 02:35:52;;;;;;;24.13;17.83;;;13.30;94.50;;;;;;5056217;28;20451;-43
2023/05/15 02:38:22;;;;;;;23.80;17.30;;;13.10;94.60;;;;;;5073734;28;20456;-43
2023/05/15 02:40:51;;;;;;;20.67;18.23;;;12.50;94.50;;;;;;5074246;28;20435;-43
2023/05/15 02:43:19;;;;;;;21.83;18.23;;;12.30;94.50;;;;;;5056166;28;20442;-43
2023/05/15 02:45:48;;;;;;;18.13;16.27;;;12.80;94.80;;;;;;5056282;28;20536;-44
2023/05/15 02:48:17;;;;;;;17.83;15.97;;;13.20;95.20;;;;;;5073478;28;20457;-43
2023/05/15 02:50:43;;;;;;;18.67;16.70;;;12.80;95.10;;;;;;5056000;28;20444;-44
2023/05/15 02:53:13;;;;;;;18.50;16.47;;;13.20;95.40;;;;;;5073777;28;20964;-44
2023/05/15 02:55:40;;;;;;;18.73;15.77;;;12.90;95.40;;;;;;5055799;28;20451;-44
2023/05/15 02:58:06;;;;;;;19.80;17.50;;;13.20;95.60;;;;;;5073733;28;20434;-43
2023/05/15 03:00:33;;;;;;;19.30;16.70;;;12.80;95.60;;;;;;5074046;28;20527;-45
2023/05/15 03:03:00;;;;;;;17.53;15.70;;;13.20;95.90;;;;;;5074035;28;20403;-43
2023/05/15 03:05:27;;;;;;;17.53;14.40;;;13.00;96.00;;;;;;5074872;28;20442;-43
2023/05/15 03:07:54;;;;;;;21.07;14.67;;;12.80;95.90;;;;;;5074149;28;20949;-44
2023/05/15 03:10:22;;;;;;;16.43;13.70;;;12.90;96.10;;;;;;5056363;28;20455;-42
2023/05/15 03:12:49;;;;;;;15.57;13.93;;;12.80;96.20;;;;;;5074341;28;20528;-42
2023/05/15 03:15:16;;;;;;;20.37;14.77;;;12.30;96.00;;;;;;5073852;28;20490;-44
2023/05/15 03:17:43;;;;;;;17.50;15.33;;;13.00;96.40;;;;;;5074155;28;20502;-43
2023/05/15 03:20:11;;;;;;;21.60;15.07;;;12.40;96.40;;;;;;5073874;28;20522;-44
2023/05/15 03:22:39;;;;;;;25.57;16.80;;;12.80;96.90;;;;;;5056670;28;20453;-44
2023/05/15 03:25:07;;;;;;;20.33;15.70;;;12.70;96.70;;;;;;5073186;28;20527;-45
2023/05/15 03:27:34;;;;;;;20.30;14.70;;;12.60;96.80;;;;;;5073258;28;20421;-42
2023/05/15 03:30:01;;;;;;;20.03;14.97;;;13.00;97.10;;;;;;5054798;28;20463;-42
2023/05/15 03:32:28;;;;;;;20.13;15.60;;;13.00;97.20;;;;;;5073182;28;20442;-44
2023/05/15 03:34:54;;;;;;;16.10;14.47;;;12.80;97.20;;;;;;5054966;28;20487;-43
2023/05/15 03:37:21;;;;;;;16.50;13.90;;;12.90;97.50;;;;;;5073071;28;20428;-43
2023/05/15 03:39:50;;;;;;;26.07;16.00;;;12.90;97.50;;;;;;5072631;28;20434;-43
2023/05/15 03:42:21;;;;;;;18.17;15.90;;;13.10;97.70;;;;;;5073079;28;20939;-43
2023/05/15 03:44:47;;;;;;;17.73;15.93;;;12.50;97.60;;;;;;5073022;28;20520;-43
2023/05/15 03:47:14;;;;;;;21.47;15.80;;;12.70;97.80;;;;;;5072916;28;20464;-44
2023/05/15 03:49:42;;;;;;;19.43;15.07;;;13.10;98.00;;;;;;5054570;28;20854;-46
2023/05/15 03:52:10;;;;;;;17.33;15.50;;;13.10;98.20;;;;;;5073246;28;20518;-44
2023/05/15 03:54:36;;;;;;;20.60;16.33;;;12.70;98.00;;;;;;5072609;28;20517;-44
2023/05/15 03:57:05;;;;;;;19.60;17.47;;;12.30;98.00;;;;;;5072420;28;20839;-43
2023/05/15 03:59:32;;;;;;;20.10;17.10;;;13.20;98.50;;;;;;5072205;28;20471;-44
2023/05/15 04:01:58;;;;;;;18.83;16.83;;;13.20;98.50;;;;;;5072493;28;20437;-44
2023/05/15 04:04:25;;;;;;;21.20;18.97;;;12.30;98.10;;;;;;5072764;28;20409;-44
2023/05/15 04:06:52;;;;;;;21.13;17.97;;;13.30;98.70;;;;;;5072382;28;20879;-43
2023/05/15 04:09:18;;;;;;;18.27;16.50;;;13.30;98.30;;;;;;5072510;28;20541;-44
2023/05/15 04:11:45;;;;;;;20.13;18.03;;;13.20;97.80;;;;;;5072570;28;20435;-45
2023/05/15 04:14:13;;;;;;;18.57;16.63;;;13.40;97.70;;;;;;5054142;28;20559;-43
2023/05/15 04:16:40;;;;;;;17.40;15.70;;;13.20;97.40;;;;;;5072264;28;20448;-43
2023/05/15 04:19:06;;;;;;;18.33;16.53;;;13.30;97.10;;;;;;5071964;28;20445;-41
2023/05/15 04:21:33;;;;;;;17.67;15.70;;;13.60;97.10;;;;;;5072292;28;20443;-43
2023/05/15 04:24:00;;;;;;;18.53;16.50;;;13.80;97.10;;;;;;5054153;28;20449;-42
2023/05/15 04:26:26;;;;;;;19.97;15.90;;;13.60;97.00;;;;;;5072175;28;20452;-43
2023/05/15 04:28:55;;;;;;;19.50;16.47;;;13.60;96.90;;;;;;5072011;28;20463;-45
2023/05/15 04:31:23;;;;;;;15.67;14.13;;;13.80;97.00;;;;;;5072652;28;20460;-44
2023/05/15 04:33:50;;;;;;;15.47;13.97;;;13.80;96.90;;;;;;5072961;28;20471;-43
2023/05/15 04:36:17;;;;;;;15.67;14.10;;;13.40;96.50;;;;;;5072849;28;20521;-44
2023/05/15 04:38:43;;;;;;;16.07;14.67;;;13.50;96.30;;;;;;5073361;28;20433;-44
2023/05/15 04:41:10;;;;;;;19.50;15.10;;;13.80;96.30;;;;;;5073270;28;20407;-43
2023/05/15 04:43:37;;;;;;;19.07;15.37;;;13.60;96.20;;;;;;5073652;28;20445;-43
2023/05/15 04:46:04;;;;;;;19.93;15.90;;;13.20;95.90;;;;;;5072892;28;20445;-45
2023/05/15 04:48:32;;;;;;;18.47;15.10;;;13.60;96.10;;;;;;5073860;28;20925;-42
2023/05/15 04:50:59;;;;;;;18.63;16.10;;;13.90;96.20;;;;;;5074667;28;20801;-44
2023/05/15 04:53:25;;;;;;;19.70;15.77;;;13.70;96.10;;;;;;5073074;28;20439;-43
2023/05/15 04:55:52;;;;;;;16.23;14.70;;;13.60;95.90;;;;;;5073777;28;20465;-43
2023/05/15 04:58:19;;;;;;;18.03;16.23;;;14.20;96.20;;;;;;5055870;28;20471;-43
2023/05/15 05:00:45;;;;;;;17.43;14.10;;;13.90;95.80;;;;;;5076280;28;20444;-44
2023/05/15 05:03:12;;;;;;;17.50;14.30;;;14.00;95.50;;;;;;5074779;28;20868;-44
2023/05/15 05:05:40;;;;;;;22.70;16.50;;;14.20;95.20;;;;;;5073332;28;20429;-44
2023/05/15 05:08:07;;;;;;;18.07;14.93;;;14.40;95.00;;;;;;5071690;28;20429;-43
2023/05/15 05:10:33;;;;;;;20.53;16.30;;;14.50;94.50;;;;;;5072583;28;20876;-44
2023/05/15 05:13:00;;;;;;;20.23;14.63;;;14.60;94.20;;;;;;5054069;28;20416;-46
2023/05/15 05:15:27;;;;;;;42.60;14.17;;;14.90;94.00;;;;;;5072305;28;20476;-44
2023/05/15 05:17:53;;;;;;;14.87;13.40;;;14.90;93.40;;;;;;5072376;28;21047;-44
2023/05/15 05:20:20;;;;;;;14.10;12.70;;;15.50;93.30;;;;;;5071942;28;20441;-44
2023/05/15 05:22:48;;;;;;;17.57;12.43;;;15.10;92.70;;;;;;5071647;28;20410;-44
2023/05/15 05:25:15;;;;;;;12.70;11.50;;;15.40;92.40;;;;;;5072406;28;20487;-45
2023/05/15 05:27:42;;;;;;;12.60;11.40;;;15.50;92.20;;;;;;5075270;28;20449;-44
2023/05/15 05:30:09;;;;;;;14.67;11.90;;;15.50;91.70;;;;;;5076124;28;20445;-45
2023/05/15 05:32:36;;;;;;;21.17;12.80;;;16.30;91.80;;;;;;5077046;28;20438;-44
2023/05/15 05:35:03;;;;;;;13.63;11.40;;;15.80;91.10;;;;;;5057422;28;20472;-45
2023/05/15 05:37:29;;;;;;;14.50;10.73;;;16.00;90.80;;;;;;5075523;28;20540;-44
2023/05/15 05:39:57;;;;;;;12.57;11.23;;;16.30;90.60;;;;;;5057670;28;20453;-43
2023/05/15 05:42:24;;;;;;;13.20;10.33;;;16.50;90.40;;;;;;5076212;28;20807;-42
2023/05/15 05:44:50;;;;;;;12.27;10.70;;;16.60;89.50;;;;;;5076904;28;20434;-42
2023/05/15 05:47:17;;;;;;;12.20;11.00;;;17.00;89.80;;;;;;5080996;22;20468;-44
2023/05/15 05:49:46;;;;;;;12.43;10.77;;;16.80;89.20;;;;;;5075330;28;20412;-45
2023/05/15 05:52:14;;;;;;;12.43;10.93;;;16.80;88.90;;;;;;5076578;28;20449;-43
2023/05/15 05:54:41;;;;;;;15.17;11.53;;;16.40;88.60;;;;;;5075062;28;20476;-43
2023/05/15 05:57:09;;;;;;;13.30;11.60;;;16.30;88.80;;;;;;5075404;28;20449;-42
2023/05/15 05:59:36;;;;;;;19.50;13.37;;;16.30;89.30;;;;;;5075172;28;21019;-44
2023/05/15 06:02:03;;;;;;;18.50;11.70;;;16.50;89.60;;;;;;5075465;28;20796;-43
2023/05/15 06:04:30;;;;;;;20.73;11.80;;;16.30;89.30;;;;;;5056876;28;20454;-43
2023/05/15 06:06:57;;;;;;;13.23;10.60;;;16.30;89.30;;;;;;5074641;28;20990;-42
2023/05/15 06:09:23;;;;;;;14.30;12.90;;;16.10;89.00;;;;;;5074589;28;20449;-44
2023/05/15 06:11:50;;;;;;;23.90;14.07;;;16.50;89.10;;;;;;5074828;28;20529;-44
2023/05/15 06:14:18;;;;;;;21.43;12.80;;;16.50;89.00;;;;;;5074855;28;20786;-44
2023/05/15 06:16:45;;;;;;;19.30;12.73;;;16.70;89.10;;;;;;5074377;28;20453;-44
2023/05/15 06:19:11;;;;;;;14.83;12.17;;;16.80;89.00;;;;;;5074950;28;20525;-43
2023/05/15 06:21:38;;;;;;;15.90;12.10;;;17.00;88.80;;;;;;5074783;28;20432;-44
2023/05/15 06:24:05;;;;;;;26.17;15.43;;;17.00;88.50;;;;;;5074965;28;20484;-43
2023/05/15 06:26:31;;;;;;;19.83;16.67;;;17.10;88.40;;;;;;5074534;28;20423;-43
2023/05/15 06:28:58;;;;;;;29.27;15.83;;;17.30;87.90;;;;;;5074647;28;20445;-44
2023/05/15 06:31:26;;;;;;;26.83;14.80;;;17.10;87.50;;;;;;5074682;28;20784;-44
2023/05/15 06:33:52;;;;;;;22.13;13.97;;;17.20;87.50;;;;;;5056235;28;20446;-44
2023/05/15 06:36:19;;;;;;;20.03;17.77;;;17.20;87.40;;;;;;5073834;28;20488;-43
2023/05/15 06:38:46;;;;;;;14.57;12.50;;;17.30;87.20;;;;;;5074056;28;20690;-42
2023/05/15 06:41:13;;;;;;;14.13;11.37;;;17.20;86.00;;;;;;5073896;28;20483;-42
2023/05/15 06:43:39;;;;;;;12.80;10.60;;;17.30;85.40;;;;;;5074814;28;20436;-42
2023/05/15 06:46:06;;;;;;;11.40;10.23;;;17.60;84.50;;;;;;5074603;28;20434;-43
2023/05/15 06:48:34;;;;;;;15.87;11.20;;;17.50;84.10;;;;;;5074234;28;20991;-44
2023/05/15 06:51:00;;;;;;;23.70;10.57;;;17.80;84.40;;;;;;5074503;28;20441;-43
2023/05/15 06:53:29;;;;;;;12.50;11.07;;;17.80;84.30;;;;;;5075342;28;20928;-44
2023/05/15 06:55:56;;;;;;;17.73;11.77;;;17.70;85.00;;;;;;5074610;28;20474;-43
2023/05/15 06:58:23;;;;;;;12.80;11.17;;;17.90;84.50;;;;;;5074568;28;20456;-43
2023/05/15 07:00:50;;;;;;;12.03;10.77;;;18.00;83.80;;;;;;5076066;28;20533;-43
2023/05/15 07:03:16;;;;;;;12.60;9.10;;;17.90;83.50;;;;;;5076825;28;20443;-43
2023/05/15 07:05:45;;;;;;;16.43;11.13;;;18.30;83.30;;;;;;5076589;28;20428;-44
2023/05/15 07:08:11;;;;;;;13.50;10.10;;;18.10;82.40;;;;;;5075577;28;20968;-44
2023/05/15 07:10:38;;;;;;;13.47;10.53;;;18.00;81.70;;;;;;5077161;28;20962;-44
2023/05/15 07:13:05;;;;;;;16.30;9.53;;;18.40;81.50;;;;;;5076333;28;20938;-44
2023/05/15 07:15:31;;;;;;;11.30;9.10;;;18.60;81.30;;;;;;5077582;28;20491;-44
2023/05/15 07:17:58;;;;;;;9.70;8.67;;;18.60;80.00;;;;;;5076448;28;20508;-43
2023/05/15 07:20:25;;;;;;;10.53;8.70;;;18.90;80.30;;;;;;5076271;28;20969;-42
2023/05/15 07:22:53;;;;;;;9.30;8.40;;;18.60;79.10;;;;;;5077519;28;20537;-43
2023/05/15 07:25:19;;;;;;;10.37;9.33;;;18.40;78.00;;;;;;5076242;28;20425;-44
2023/05/15 07:27:46;;;;;;;9.93;8.97;;;18.70;77.90;;;;;;5077499;28;20461;-44
2023/05/15 07:30:13;;;;;;;16.03;8.90;;;18.80;77.60;;;;;;5075235;28;20479;-43
2023/05/15 07:32:40;;;;;;;10.60;8.63;;;19.20;77.50;;;;;;5076657;28;20442;-42
2023/05/15 07:35:07;;;;;;;10.90;8.60;;;18.60;76.10;;;;;;5077262;28;20567;-43
2023/05/15 07:37:34;;;;;;;12.57;8.57;;;19.20;76.90;;;;;;5078008;28;20500;-43
2023/05/15 07:40:03;;;;;;;13.77;9.13;;;19.10;76.70;;;;;;5076031;28;20430;-43
2023/05/15 07:42:29;;;;;;;10.73;8.57;;;19.20;76.40;;;;;;5056024;28;20446;-43
2023/05/15 07:44:56;;;;;;;9.57;8.60;;;18.80;75.90;;;;;;5075163;28;20851;-44
2023/05/15 07:47:23;;;;;;;12.20;8.40;;;18.70;75.90;;;;;;5073931;28;20483;-43
2023/05/15 07:49:49;;;;;;;13.40;7.50;;;19.10;76.20;;;;;;5072973;28;20416;-44
2023/05/15 07:52:16;;;;;;;8.47;7.23;;;19.10;75.90;;;;;;5073905;28;20429;-43
2023/05/15 07:54:42;;;;;;;12.43;7.87;;;18.90;75.70;;;;;;5055543;28;20457;-43
2023/05/15 07:57:11;;;;;;;10.67;8.07;;;18.90;75.80;;;;;;5073504;28;21002;-43
2023/05/15 07:59:38;;;;;;;12.10;7.10;;;19.10;75.00;;;;;;5072869;28;20413;-43
2023/05/15 08:02:05;;;;;;;7.77;6.97;;;19.10;74.50;;;;;;5073745;28;20485;-42
2023/05/15 08:04:31;;;;;;;10.57;7.40;;;19.40;74.70;;;;;;5073369;28;20917;-42
2023/05/15 08:06:58;;;;;;;13.77;8.30;;;18.90;74.10;;;;;;5073003;28;20453;-43
2023/05/15 08:09:24;;;;;;;17.37;7.17;;;19.30;74.90;;;;;;5072978;28;20434;-43
2023/05/15 08:11:51;;;;;;;20.70;7.93;;;19.70;75.20;;;;;;5073644;28;20416;-43
2023/05/15 08:14:19;;;;;;;8.90;6.90;;;19.40;74.80;;;;;;5073083;28;20445;-43
2023/05/15 08:16:45;;;;;;;9.17;7.10;;;19.20;74.50;;;;;;5073360;28;20847;-43
2023/05/15 08:19:12;;;;;;;12.03;6.87;;;19.30;74.40;;;;;;5073656;28;20437;-43
2023/05/15 08:21:39;;;;;;;8.50;6.90;;;18.90;73.30;;;;;;5073581;28;20452;-43
2023/05/15 08:24:06;;;;;;;12.47;8.03;;;19.00;73.30;;;;;;5073327;28;20429;-44
2023/05/15 08:26:33;;;;;;;13.40;7.90;;;19.20;74.00;;;;;;5073500;28;20441;-43
2023/05/15 08:29:00;;;;;;;12.70;8.07;;;19.20;74.30;;;;;;5073522;28;20443;-42
2023/05/15 08:31:28;;;;;;;12.83;8.00;;;19.00;74.70;;;;;;5073592;28;20777;-43
2023/05/15 08:33:54;;;;;;;12.57;7.20;;;19.00;74.60;;;;;;5073509;28;20415;-43
2023/05/15 08:36:21;;;;;;;8.00;7.20;;;18.70;74.20;;;;;;5073010;28;20469;-43
2023/05/15 08:38:47;;;;;;;10.30;6.83;;;18.80;74.80;;;;;;5072576;28;20441;-43
2023/05/15 08:41:25;;;;;;;10.73;7.03;;;18.80;75.20;;;;;;5072739;28;20436;-42
2023/05/15 08:43:55;;;;;;;13.10;7.93;;;18.70;75.50;;;;;;5073059;28;20915;-43
2023/05/15 08:46:23;;;;;;;11.47;6.87;;;18.70;76.80;;;;;;5054592;28;20461;-44
2023/05/15 08:48:53;;;;;;;12.10;6.97;;;18.90;76.40;;;;;;5072490;28;20448;-43
2023/05/15 08:51:20;;;;;;;12.00;8.40;;;18.90;76.50;;;;;;5072921;28;20800;-44
2023/05/15 08:53:47;;;;;;;10.17;8.10;;;18.70;76.60;;;;;;5072880;28;20441;-43
2023/05/15 08:56:13;;;;;;;10.13;7.70;;;19.00;77.20;;;;;;5072964;28;20477;-43
2023/05/15 08:58:40;;;;;;;8.43;7.27;;;19.10;77.10;;;;;;5071984;28;20457;-42
2023/05/15 09:01:07;;;;;;;11.30;7.07;;;19.10;76.80;;;;;;5071420;28;20448;-44
2023/05/15 09:03:34;;;;;;;16.87;7.20;;;19.10;77.00;;;;;;5073612;28;20429;-43
2023/05/15 09:06:03;;;;;;;10.23;6.77;;;19.20;77.30;;;;;;5073006;28;20821;-44
2023/05/15 09:08:33;;;;;;;9.57;7.37;;;19.20;77.10;;;;;;5054436;28;20461;-43
2023/05/15 09:11:01;;;;;;;8.80;6.30;;;19.00;76.70;;;;;;5072780;28;20650;-43
2023/05/15 09:13:28;;;;;;;9.53;7.23;;;19.20;77.10;;;;;;5072527;28;20436;-44
2023/05/15 09:15:54;;;;;;;8.43;6.83;;;19.30;77.30;;;;;;5072723;28;21000;-42
2023/05/15 09:18:21;;;;;;;10.17;7.07;;;19.10;76.90;;;;;;5072281;28;20446;-43
2023/05/15 09:20:48;;;;;;;18.10;7.67;;;18.80;76.40;;;;;;5072455;28;20440;-43
2023/05/15 09:23:34;;;;;;;14.30;8.20;;;19.30;77.20;;;;;;5054789;28;20444;-41
2023/05/15 09:26:01;;;;;;;11.40;7.68;;;18.90;76.70;;;;;;5053913;28;20430;-42
2023/05/15 09:28:29;;;;;;;8.40;7.47;;;19.60;77.10;;;;;;5071914;28;20569;-42
2023/05/15 09:31:00;;;;;;;16.70;8.27;;;19.60;76.40;;;;;;5072528;28;21162;-43
2023/05/15 09:33:28;;;;;;;13.77;7.53;;;19.40;76.80;;;;;;5072639;28;20430;-43
2023/05/15 09:35:55;;;;;;;8.70;7.13;;;19.40;76.70;;;;;;5072734;28;20572;-43
2023/05/15 09:38:22;;;;;;;12.13;6.87;;;20.40;77.70;;;;;;5071805;28;20461;-43
2023/05/15 09:40:50;;;;;;;7.27;6.40;;;20.20;76.40;;;;;;5073103;28;20447;-44
2023/05/15 09:43:17;;;;;;;7.70;6.90;;;20.10;75.40;;;;;;5072814;28;20438;-43
2023/05/15 09:45:47;;;;;;;9.13;7.33;;;20.30;75.10;;;;;;5073016;28;20435;-44
2023/05/15 09:48:14;;;;;;;15.13;7.00;;;20.30;75.00;;;;;;5072494;28;20534;-44
2023/05/15 09:50:41;;;;;;;10.20;7.23;;;20.00;74.80;;;;;;5073450;28;20524;-44
2023/05/15 09:53:11;;;;;;;9.80;7.10;;;20.00;74.70;;;;;;5072840;28;20443;-43
2023/05/15 09:55:38;;;;;;;11.67;7.20;;;20.00;75.00;;;;;;5072346;28;20837;-43
2023/05/15 09:58:08;;;;;;;13.17;6.47;;;19.80;75.00;;;;;;5072571;28;20451;-44
2023/05/15 10:00:35;;;;;;;10.57;7.83;;;19.90;75.60;;;;;;5073043;28;20438;-43
2023/05/15 10:03:03;;;;;;;11.20;7.47;;;20.10;76.10;;;;;;5072630;28;20926;-42
2023/05/15 10:05:30;;;;;;;8.90;7.53;;;19.90;74.90;;;;;;5072875;28;20437;-43
2023/05/15 10:07:58;;;;;;;8.37;6.53;;;20.00;75.00;;;;;;5073373;28;20458;-42
2023/05/15 10:10:26;;;;;;;12.10;6.80;;;19.40;74.30;;;;;;5075247;28;20441;-43
2023/05/15 10:12:54;;;;;;;8.30;6.53;;;19.70;75.00;;;;;;5076603;28;20438;-43
2023/05/15 10:15:22;;;;;;;8.80;5.93;;;19.50;74.00;;;;;;5076672;28;20438;-43
2023/05/15 10:17:50;;;;;;;10.20;5.73;;;19.50;74.40;;;;;;5057958;28;20857;-46
2023/05/15 10:20:19;;;;;;;8.50;6.00;;;19.60;74.50;;;;;;5076057;28;20794;-44
2023/05/15 10:22:47;;;;;;;8.33;6.23;;;19.70;75.40;;;;;;5076807;28;20461;-43
2023/05/15 10:25:18;;;;;;;7.20;6.00;;;19.60;75.60;;;;;;5076124;28;20426;-43
2023/05/15 10:27:46;;;;;;;9.03;6.70;;;19.70;76.00;;;;;;5075691;28;20461;-43
2023/05/15 10:30:15;;;;;;;8.07;5.93;;;19.60;76.60;;;;;;5076352;28;20491;-42
2023/05/15 10:32:44;;;;;;;10.93;6.10;;;19.50;77.50;;;;;;5075579;28;20437;-45
2023/05/15 10:35:11;;;;;;;7.90;6.63;;;19.00;78.10;;;;;;5075987;28;20862;-44
2023/05/15 10:37:39;;;;;;;6.93;6.17;;;19.80;79.70;;;;;;5076098;28;20477;-43
2023/05/15 10:40:10;;;;;;;7.37;5.50;;;19.70;79.40;;;;;;5057397;28;20556;-43
2023/05/15 10:42:37;;;;;;;7.20;6.50;;;19.80;79.30;;;;;;5075898;28;20441;-43
2023/05/15 10:45:07;;;;;;;7.10;5.47;;;19.10;78.90;;;;;;5075972;28;20804;-44
2023/05/15 10:47:34;;;;;;;11.50;6.30;;;19.40;79.20;;;;;;5075565;28;20469;-43
2023/05/15 10:50:04;;;;;;;6.50;5.90;;;19.30;79.30;;;;;;5075360;28;20430;-44
2023/05/15 10:52:31;;;;;;;8.47;6.10;;;19.70;79.50;;;;;;5057675;28;20944;-43
2023/05/15 10:54:58;;;;;;;11.43;5.07;;;19.60;79.90;;;;;;5075766;28;20492;-44
2023/05/15 10:57:25;;;;;;;6.30;5.27;;;19.90;78.60;;;;;;5076059;28;20485;-43
2023/05/15 10:59:52;;;;;;;5.43;4.77;;;19.40;79.00;;;;;;5074833;28;20735;-44
2023/05/15 11:02:20;;;;;;;17.13;6.20;;;19.70;80.00;;;;;;5075127;28;20931;-44
2023/05/15 11:04:47;;;;;;;6.70;4.33;;;20.20;82.00;;;;;;5075224;28;20439;-44
2023/05/15 11:07:17;;;;;;;9.97;4.57;;;20.40;82.40;;;;;;5075889;28;20544;-42
2023/05/15 11:09:43;;;;;;;6.23;4.67;;;20.40;82.60;;;;;;5076568;28;20426;-44
2023/05/15 11:12:11;;;;;;;5.87;4.30;;;21.00;84.20;;;;;;5078158;28;20526;-44
2023/05/15 11:14:40;;;;;;;4.43;3.80;;;20.70;83.20;;;;;;5077723;28;20458;-43
2023/05/15 11:17:09;;;;;;;3.77;3.37;;;20.80;78.80;;;;;;5076459;28;20979;-43
2023/05/15 11:19:39;;;;;;;6.43;3.50;;;21.00;76.20;;;;;;5077486;28;20552;-43
2023/05/15 11:22:22;;;;;;;4.93;3.00;;;21.10;74.20;;;;;;5078292;28;20471;-43
2023/05/15 11:24:51;;;;;;;9.00;3.90;;;21.10;69.30;;;;;;5076210;28;20486;-45
2023/05/15 11:27:19;;;;;;;4.00;3.60;;;21.10;70.60;;;;;;5078558;28;20968;-44
2023/05/15 11:30:16;;;;;;;6.60;3.90;;;21.10;69.30;;;;;;5074679;28;20888;-43
2023/05/15 11:32:52;;;;;;;3.80;2.60;;;21.20;69.70;;;;;;5074697;28;20447;-44
2023/05/15 11:35:21;;;;;;;5.07;3.50;;;21.30;68.80;;;;;;5074399;28;20436;-43
2023/05/15 11:37:50;;;;;;;5.03;3.20;;;21.30;69.30;;;;;;5074181;28;20492;-44
2023/05/15 11:40:25;;;;;;;4.70;3.40;;;21.30;69.00;;;;;;5073911;28;20447;-44
2023/05/15 11:43:07;;;;;;;3.87;3.30;;;21.20;69.00;;;;;;5074461;28;20465;-43
2023/05/15 11:45:36;;;;;;;3.87;2.40;;;21.00;67.90;;;;;;5074662;28;20494;-44
2023/05/15 11:48:05;;;;;;;4.73;3.57;;;20.80;68.40;;;;;;5086616;22;20489;-48
2023/05/15 11:50:33;;;;;;;3.63;3.33;;;20.70;68.60;;;;;;5052705;28;20469;-47
2023/05/15 11:53:04;;;;;;;7.67;3.40;;;20.90;69.80;;;;;;5052632;28;20459;-48
2023/05/15 11:55:32;;;;;;;4.53;3.97;;;20.30;69.10;;;;;;5052733;28;20437;-47
2023/05/15 11:57:59;;;;;;;5.30;4.20;;;20.30;69.50;;;;;;5052611;28;20488;-47
2023/05/15 12:00:25;;;;;;;5.60;3.50;;;20.80;70.70;;;;;;5052144;28;21012;-49
2023/05/15 12:02:52;;;;;;;6.50;3.27;;;20.40;71.10;;;;;;5052473;28;20449;-48
2023/05/15 12:05:19;;;;;;;5.83;3.53;;;20.50;70.90;;;;;;5052897;28;20426;-47
2023/05/15 12:07:46;;;;;;;6.77;3.30;;;20.10;69.20;;;;;;5053010;28;20431;-48
2023/05/15 12:10:14;;;;;;;4.47;3.10;;;20.50;69.70;;;;;;5034002;28;20451;-47
2023/05/15 12:12:42;;;;;;;4.83;3.87;;;20.40;68.80;;;;;;5052905;28;20415;-47
2023/05/15 12:15:10;;;;;;;3.70;3.30;;;20.10;69.00;;;;;;5052844;28;20918;-49
2023/05/15 12:17:37;;;;;;;2.83;2.63;;;20.60;69.10;;;;;;5052053;28;20506;-48
2023/05/15 12:20:07;;;;;;;3.70;3.17;;;20.60;67.20;;;;;;5052269;28;20464;-48
2023/05/15 12:22:38;;;;;;;4.70;3.43;;;20.50;66.80;;;;;;5052739;28;20517;-47
2023/05/15 12:25:06;;;;;;;3.00;2.70;;;20.60;67.30;;;;;;5052707;28;20429;-48
2023/05/15 12:27:34;;;;;;;4.10;3.10;;;20.90;67.40;;;;;;5053428;28;20479;-47
2023/05/15 12:30:03;;;;;;;3.73;2.83;;;20.70;66.10;;;;;;5053897;28;20475;-47
2023/05/15 12:32:31;;;;;;;5.00;3.30;;;20.80;65.80;;;;;;5053172;28;20538;-46
2023/05/15 12:34:58;;;;;;;3.40;3.00;;;20.90;65.80;;;;;;5052828;28;20424;-47
2023/05/15 12:37:25;;;;;;;9.13;3.80;;;21.20;66.40;;;;;;5052534;28;20488;-49